ROA319 SCDA-SCIE
Flight info
| Callsign | ROA319 |
|---|---|
| Flight time | 2h 18m |
| Altitude | 33000 |
| Route | REBOL4B REBOL UV204 FAG DCT DAT/N0454F350 DCT TOY UT105 SOSTA SOSTA6C |
| Aircraft | A321/M-SDE3FGHIRWY/LB1 |
Departure
| Time | 2026-04-22 01:55 |
|---|---|
| Airport | Diego Aracena International Airport (SCDA) |
Arrival
| Time | 2026-04-22 04:13 |
|---|---|
| Airport | Carriel Sur International Airport (SCIE) |
| Time | Latitude | Longitude | Altitude | Speed | Heading |
|---|---|---|---|---|---|
| 2026-04-22 01:27 | -20.54805 | -70.17941 | 175 ft | 0 kts | 95° |
| 2026-04-22 01:44 | -20.54804 | -70.17951 | 174 ft | 3 kts | 95° |
| 2026-04-22 01:45 | -20.54802 | -70.17975 | 174 ft | 2 kts | 95° |
| 2026-04-22 01:45 | -20.54802 | -70.17997 | 174 ft | 3 kts | 73° |
| 2026-04-22 01:45 | -20.54813 | -70.18017 | 174 ft | 3 kts | 29° |
| 2026-04-22 01:45 | -20.54827 | -70.18023 | 174 ft | 0 kts | 3° |
| 2026-04-22 01:48 | -20.54804 | -70.18021 | 174 ft | 8 kts | 3° |
| 2026-04-22 01:48 | -20.54720 | -70.18016 | 174 ft | 17 kts | 3° |
| 2026-04-22 01:48 | -20.54578 | -70.18009 | 174 ft | 23 kts | 2° |
| 2026-04-22 01:48 | -20.54427 | -70.18001 | 174 ft | 21 kts | 2° |
| 2026-04-22 01:49 | -20.54284 | -70.17993 | 174 ft | 21 kts | 2° |
| 2026-04-22 01:49 | -20.54118 | -70.17985 | 174 ft | 27 kts | 2° |
| 2026-04-22 01:49 | -20.53925 | -70.17975 | 174 ft | 27 kts | 3° |
| 2026-04-22 01:49 | -20.53742 | -70.17965 | 175 ft | 26 kts | 3° |
| 2026-04-22 01:50 | -20.53570 | -70.17956 | 175 ft | 24 kts | 2° |
| 2026-04-22 01:50 | -20.53407 | -70.17947 | 174 ft | 23 kts | 3° |
| 2026-04-22 01:50 | -20.53255 | -70.17938 | 175 ft | 21 kts | 3° |
| 2026-04-22 01:50 | -20.53113 | -70.17930 | 174 ft | 20 kts | 3° |
| 2026-04-22 01:51 | -20.52980 | -70.17922 | 174 ft | 18 kts | 3° |
| 2026-04-22 01:51 | -20.52876 | -70.17917 | 174 ft | 9 kts | 3° |
| 2026-04-22 01:51 | -20.52843 | -70.17917 | 174 ft | 3 kts | 352° |
| 2026-04-22 01:51 | -20.52829 | -70.17928 | 174 ft | 2 kts | 315° |
| 2026-04-22 01:52 | -20.52826 | -70.17933 | 174 ft | 0 kts | 307° |
| 2026-04-22 01:53 | -20.52824 | -70.17936 | 174 ft | 2 kts | 304° |
| 2026-04-22 01:53 | -20.52814 | -70.17970 | 174 ft | 6 kts | 282° |
| 2026-04-22 01:53 | -20.52797 | -70.18021 | 174 ft | 9 kts | 294° |
| 2026-04-22 01:54 | -20.52782 | -70.18077 | 174 ft | 6 kts | 250° |
| 2026-04-22 01:54 | -20.52805 | -70.18086 | 175 ft | 0 kts | 184° |
| 2026-04-22 01:54 | -20.52834 | -70.18088 | 175 ft | 25 kts | 184° |
| 2026-04-22 01:55 | -20.53259 | -70.18111 | 174 ft | 95 kts | 182° |
| 2026-04-22 01:55 | -20.54114 | -70.18158 | 177 ft | 148 kts | 183° |
| 2026-04-22 01:55 | -20.55210 | -70.18208 | 635 ft | 156 kts | 182° |
| 2026-04-22 01:55 | -20.56316 | -70.18252 | 1162 ft | 167 kts | 182° |
| 2026-04-22 01:56 | -20.57539 | -70.18299 | 1371 ft | 187 kts | 183° |
| 2026-04-22 01:56 | -20.58916 | -70.18353 | 1521 ft | 209 kts | 183° |
| 2026-04-22 01:56 | -20.60461 | -70.18417 | 1713 ft | 235 kts | 183° |
| 2026-04-22 01:56 | -20.62151 | -70.18488 | 2157 ft | 249 kts | 183° |
| 2026-04-22 01:57 | -20.63909 | -70.18559 | 2749 ft | 258 kts | 182° |
| 2026-04-22 01:57 | -20.65737 | -70.18628 | 3356 ft | 266 kts | 182° |
| 2026-04-22 01:57 | -20.67609 | -70.18702 | 4007 ft | 271 kts | 182° |
| 2026-04-22 01:57 | -20.69511 | -70.18781 | 4667 ft | 276 kts | 183° |
| 2026-04-22 01:58 | -20.71446 | -70.18864 | 5290 ft | 280 kts | 183° |
| 2026-04-22 01:58 | -20.73408 | -70.18947 | 5917 ft | 283 kts | 183° |
| 2026-04-22 01:58 | -20.75350 | -70.19287 | 6509 ft | 285 kts | 203° |
| 2026-04-22 01:58 | -20.77160 | -70.20155 | 7073 ft | 287 kts | 199° |
| 2026-04-22 01:59 | -20.79133 | -70.20522 | 7616 ft | 290 kts | 185° |
| 2026-04-22 01:59 | -20.81120 | -70.20748 | 8219 ft | 292 kts | 186° |
| 2026-04-22 01:59 | -20.83174 | -70.20947 | 8828 ft | 293 kts | 184° |
| 2026-04-22 01:59 | -20.85217 | -70.21105 | 9403 ft | 296 kts | 184° |
| 2026-04-22 02:00 | -20.87252 | -70.21257 | 9977 ft | 298 kts | 184° |
| 2026-04-22 02:00 | -20.89330 | -70.21419 | 10491 ft | 301 kts | 184° |
| 2026-04-22 02:00 | -20.91420 | -70.21596 | 11028 ft | 303 kts | 185° |
| 2026-04-22 02:00 | -20.93530 | -70.21783 | 11584 ft | 304 kts | 185° |
| 2026-04-22 02:01 | -20.95645 | -70.21978 | 12139 ft | 306 kts | 185° |
| 2026-04-22 02:01 | -20.97776 | -70.22179 | 12681 ft | 308 kts | 186° |
| 2026-04-22 02:01 | -20.99916 | -70.22382 | 13250 ft | 310 kts | 186° |
| 2026-04-22 02:01 | -21.02070 | -70.22586 | 13810 ft | 312 kts | 186° |
| 2026-04-22 02:02 | -21.04244 | -70.22792 | 14295 ft | 315 kts | 186° |
| 2026-04-22 02:02 | -21.06442 | -70.22997 | 14729 ft | 319 kts | 186° |
| 2026-04-22 02:02 | -21.08662 | -70.23201 | 15152 ft | 322 kts | 186° |
| 2026-04-22 02:02 | -21.10910 | -70.23409 | 15581 ft | 326 kts | 186° |
| 2026-04-22 02:03 | -21.13182 | -70.23618 | 16006 ft | 329 kts | 186° |
| 2026-04-22 02:03 | -21.15476 | -70.23830 | 16425 ft | 332 kts | 186° |
| 2026-04-22 02:03 | -21.17785 | -70.24043 | 16855 ft | 334 kts | 186° |
| 2026-04-22 02:03 | -21.20087 | -70.24256 | 17226 ft | 339 kts | 186° |
| 2026-04-22 02:04 | -21.24840 | -70.24696 | 18008 ft | 346 kts | 187° |
| 2026-04-22 02:04 | -21.27253 | -70.24921 | 18393 ft | 350 kts | 187° |
| 2026-04-22 02:04 | -21.29690 | -70.25151 | 18730 ft | 353 kts | 187° |
| 2026-04-22 02:05 | -21.32150 | -70.25384 | 19097 ft | 355 kts | 187° |
| 2026-04-22 02:05 | -21.34619 | -70.25616 | 19470 ft | 357 kts | 187° |
| 2026-04-22 02:05 | -21.37099 | -70.25847 | 19850 ft | 359 kts | 187° |
| 2026-04-22 02:05 | -21.39586 | -70.26078 | 20219 ft | 360 kts | 187° |
| 2026-04-22 02:06 | -21.42091 | -70.26311 | 20598 ft | 362 kts | 187° |
| 2026-04-22 02:06 | -21.44604 | -70.26543 | 20963 ft | 363 kts | 187° |
| 2026-04-22 02:06 | -21.47128 | -70.26777 | 21335 ft | 365 kts | 187° |
| 2026-04-22 02:06 | -21.49661 | -70.27014 | 21708 ft | 366 kts | 188° |
| 2026-04-22 02:07 | -21.52209 | -70.27253 | 22081 ft | 368 kts | 188° |
| 2026-04-22 02:07 | -21.54769 | -70.27493 | 22454 ft | 370 kts | 188° |
| 2026-04-22 02:07 | -21.57337 | -70.27735 | 22833 ft | 372 kts | 188° |
| 2026-04-22 02:07 | -21.59917 | -70.27977 | 23210 ft | 373 kts | 188° |
| 2026-04-22 02:08 | -21.62516 | -70.28224 | 23574 ft | 375 kts | 188° |
| 2026-04-22 02:08 | -21.65086 | -70.28468 | 23897 ft | 377 kts | 188° |
| 2026-04-22 02:08 | -21.67711 | -70.28717 | 24183 ft | 379 kts | 188° |
| 2026-04-22 02:08 | -21.70342 | -70.28966 | 24476 ft | 381 kts | 188° |
| 2026-04-22 02:09 | -21.72996 | -70.29216 | 24760 ft | 384 kts | 189° |
| 2026-04-22 02:09 | -21.75662 | -70.29466 | 25044 ft | 386 kts | 189° |
| 2026-04-22 02:09 | -21.78344 | -70.29716 | 25323 ft | 388 kts | 189° |
| 2026-04-22 02:09 | -21.81039 | -70.29970 | 25597 ft | 390 kts | 189° |
| 2026-04-22 02:10 | -21.83747 | -70.30224 | 25882 ft | 392 kts | 189° |
| 2026-04-22 02:10 | -21.86474 | -70.30477 | 26136 ft | 394 kts | 189° |
| 2026-04-22 02:10 | -21.89211 | -70.30731 | 26404 ft | 396 kts | 189° |
| 2026-04-22 02:10 | -21.91970 | -70.30991 | 26653 ft | 398 kts | 190° |
| 2026-04-22 02:11 | -21.94754 | -70.31252 | 26785 ft | 405 kts | 189° |
| 2026-04-22 02:11 | -21.97583 | -70.31505 | 26908 ft | 411 kts | 189° |
| 2026-04-22 02:11 | -22.00448 | -70.31756 | 27033 ft | 416 kts | 189° |
| 2026-04-22 02:11 | -22.03354 | -70.32009 | 27155 ft | 422 kts | 189° |
| 2026-04-22 02:12 | -22.06294 | -70.32264 | 27278 ft | 427 kts | 189° |
| 2026-04-22 02:12 | -22.09275 | -70.32524 | 27402 ft | 432 kts | 189° |
| 2026-04-22 02:12 | -22.12247 | -70.32785 | 27525 ft | 437 kts | 189° |
| 2026-04-22 02:12 | -22.15332 | -70.33056 | 27649 ft | 442 kts | 189° |
| 2026-04-22 02:13 | -22.18369 | -70.33324 | 27768 ft | 446 kts | 189° |
| 2026-04-22 02:13 | -22.21481 | -70.33599 | 27922 ft | 451 kts | 190° |
| 2026-04-22 02:13 | -22.24623 | -70.33876 | 28036 ft | 455 kts | 190° |
| 2026-04-22 02:13 | -22.27797 | -70.34156 | 28154 ft | 460 kts | 190° |
| 2026-04-22 02:14 | -22.31003 | -70.34440 | 28298 ft | 464 kts | 190° |
| 2026-04-22 02:14 | -22.34230 | -70.34727 | 28414 ft | 468 kts | 190° |
| 2026-04-22 02:14 | -22.37490 | -70.35018 | 28546 ft | 471 kts | 190° |
| 2026-04-22 02:14 | -22.40774 | -70.35313 | 28673 ft | 475 kts | 190° |
| 2026-04-22 02:15 | -22.44074 | -70.35608 | 28803 ft | 479 kts | 190° |
| 2026-04-22 02:15 | -22.47406 | -70.35903 | 28933 ft | 482 kts | 190° |
| 2026-04-22 02:15 | -22.50760 | -70.36200 | 29059 ft | 485 kts | 190° |
| 2026-04-22 02:15 | -22.54127 | -70.36496 | 29218 ft | 487 kts | 190° |
| 2026-04-22 02:16 | -22.57516 | -70.36794 | 29384 ft | 489 kts | 190° |
| 2026-04-22 02:16 | -22.60912 | -70.37095 | 29559 ft | 491 kts | 190° |
| 2026-04-22 02:16 | -22.64320 | -70.37400 | 29737 ft | 492 kts | 191° |
| 2026-04-22 02:16 | -22.67741 | -70.37707 | 29913 ft | 494 kts | 191° |
| 2026-04-22 02:17 | -22.71177 | -70.38014 | 30095 ft | 496 kts | 191° |
| 2026-04-22 02:17 | -22.74610 | -70.38318 | 30307 ft | 496 kts | 191° |
| 2026-04-22 02:17 | -22.78048 | -70.38624 | 30521 ft | 495 kts | 191° |
| 2026-04-22 02:17 | -22.81486 | -70.38932 | 30732 ft | 496 kts | 191° |
| 2026-04-22 02:18 | -22.84877 | -70.39235 | 30958 ft | 496 kts | 191° |
| 2026-04-22 02:18 | -22.88314 | -70.39544 | 31169 ft | 496 kts | 191° |
| 2026-04-22 02:18 | -22.91751 | -70.39852 | 31386 ft | 496 kts | 191° |
| 2026-04-22 02:18 | -22.95190 | -70.40158 | 31605 ft | 496 kts | 191° |
| 2026-04-22 02:19 | -22.98634 | -70.40464 | 31823 ft | 496 kts | 191° |
| 2026-04-22 02:19 | -23.02073 | -70.40769 | 32043 ft | 496 kts | 191° |
| 2026-04-22 02:19 | -23.05516 | -70.41076 | 32265 ft | 496 kts | 191° |
| 2026-04-22 02:19 | -23.08959 | -70.41385 | 32490 ft | 497 kts | 191° |
| 2026-04-22 02:20 | -23.12404 | -70.41694 | 32718 ft | 497 kts | 191° |
| 2026-04-22 02:20 | -23.15844 | -70.42001 | 32953 ft | 497 kts | 191° |
| 2026-04-22 02:20 | -23.19295 | -70.42308 | 33176 ft | 498 kts | 191° |
| 2026-04-22 02:20 | -23.22750 | -70.42619 | 33417 ft | 498 kts | 191° |
| 2026-04-22 02:21 | -23.26203 | -70.42932 | 33645 ft | 498 kts | 191° |
| 2026-04-22 02:21 | -23.29653 | -70.43244 | 33871 ft | 498 kts | 191° |
| 2026-04-22 02:21 | -23.31942 | -70.43451 | 34017 ft | 498 kts | 191° |
| 2026-04-22 02:21 | -23.36565 | -70.43866 | 34287 ft | 498 kts | 191° |
| 2026-04-22 02:22 | -23.38853 | -70.44071 | 34415 ft | 498 kts | 192° |
| 2026-04-22 02:22 | -23.42310 | -70.44382 | 34615 ft | 498 kts | 192° |
| 2026-04-22 02:22 | -23.45764 | -70.44695 | 34810 ft | 499 kts | 192° |
| 2026-04-22 02:22 | -23.49226 | -70.45006 | 34981 ft | 499 kts | 192° |
| 2026-04-22 02:23 | -23.52686 | -70.45304 | 35085 ft | 499 kts | 192° |
| 2026-04-22 02:23 | -23.59593 | -70.45872 | 35107 ft | 497 kts | 192° |
| 2026-04-22 02:24 | -23.66488 | -70.46437 | 35106 ft | 496 kts | 192° |
| 2026-04-22 02:24 | -23.73375 | -70.47015 | 35103 ft | 496 kts | 192° |
| 2026-04-22 02:25 | -23.80260 | -70.47602 | 35095 ft | 496 kts | 192° |
| 2026-04-22 02:25 | -23.87169 | -70.48183 | 35118 ft | 499 kts | 192° |
| 2026-04-22 02:26 | -23.94045 | -70.48764 | 35120 ft | 499 kts | 192° |
| 2026-04-22 02:26 | -24.00957 | -70.49347 | 35120 ft | 498 kts | 192° |
| 2026-04-22 02:27 | -24.07863 | -70.49933 | 35114 ft | 497 kts | 192° |
| 2026-04-22 02:27 | -24.14766 | -70.50515 | 35114 ft | 497 kts | 192° |
| 2026-04-22 02:28 | -24.21665 | -70.51102 | 35115 ft | 497 kts | 192° |
| 2026-04-22 02:28 | -24.28561 | -70.51687 | 35112 ft | 497 kts | 192° |
| 2026-04-22 02:29 | -24.35462 | -70.52269 | 35132 ft | 497 kts | 192° |
| 2026-04-22 02:29 | -24.42360 | -70.52855 | 35119 ft | 498 kts | 192° |
| 2026-04-22 02:30 | -24.49215 | -70.53442 | 35112 ft | 497 kts | 192° |
| 2026-04-22 02:30 | -24.56109 | -70.54034 | 35130 ft | 498 kts | 193° |
| 2026-04-22 02:31 | -24.63021 | -70.54630 | 35118 ft | 498 kts | 193° |
| 2026-04-22 02:31 | -24.69933 | -70.55223 | 35130 ft | 498 kts | 193° |
| 2026-04-22 02:32 | -24.76854 | -70.55803 | 35119 ft | 498 kts | 193° |
| 2026-04-22 02:32 | -24.83764 | -70.56389 | 35108 ft | 498 kts | 193° |
| 2026-04-22 02:33 | -24.90689 | -70.56981 | 35113 ft | 499 kts | 193° |
| 2026-04-22 02:33 | -24.97560 | -70.57572 | 35126 ft | 499 kts | 193° |
| 2026-04-22 02:34 | -25.04480 | -70.58173 | 35126 ft | 499 kts | 193° |
| 2026-04-22 02:34 | -25.11399 | -70.58769 | 35120 ft | 499 kts | 193° |
| 2026-04-22 02:35 | -25.18316 | -70.59369 | 35120 ft | 498 kts | 193° |
| 2026-04-22 02:35 | -25.25230 | -70.59962 | 35146 ft | 498 kts | 194° |
| 2026-04-22 02:36 | -25.32146 | -70.60560 | 35133 ft | 498 kts | 194° |
| 2026-04-22 02:36 | -25.39056 | -70.61151 | 35131 ft | 498 kts | 194° |
| 2026-04-22 02:37 | -25.45965 | -70.61746 | 35131 ft | 498 kts | 194° |
| 2026-04-22 02:37 | -25.52869 | -70.62344 | 35124 ft | 497 kts | 194° |
| 2026-04-22 02:38 | -25.59720 | -70.62935 | 35145 ft | 497 kts | 194° |
| 2026-04-22 02:38 | -25.66609 | -70.63538 | 35135 ft | 497 kts | 194° |
| 2026-04-22 02:39 | -25.73493 | -70.64139 | 35129 ft | 496 kts | 194° |
| 2026-04-22 02:39 | -25.80383 | -70.64744 | 35126 ft | 497 kts | 194° |
| 2026-04-22 02:40 | -25.87274 | -70.65342 | 35141 ft | 497 kts | 194° |
| 2026-04-22 02:40 | -25.94159 | -70.65933 | 35137 ft | 496 kts | 194° |
| 2026-04-22 02:41 | -26.01028 | -70.66533 | 35137 ft | 495 kts | 194° |
| 2026-04-22 02:41 | -26.07893 | -70.67140 | 35124 ft | 495 kts | 194° |
| 2026-04-22 02:42 | -26.14760 | -70.67753 | 35149 ft | 495 kts | 194° |
| 2026-04-22 02:42 | -26.21575 | -70.68346 | 35141 ft | 494 kts | 194° |
| 2026-04-22 02:43 | -26.28423 | -70.68939 | 35136 ft | 493 kts | 195° |
| 2026-04-22 02:43 | -26.35269 | -70.69540 | 35131 ft | 493 kts | 195° |
| 2026-04-22 02:44 | -26.42110 | -70.70143 | 35131 ft | 493 kts | 195° |
| 2026-04-22 02:44 | -26.48953 | -70.70749 | 35148 ft | 493 kts | 195° |
| 2026-04-22 02:45 | -26.55782 | -70.71355 | 35143 ft | 492 kts | 195° |
| 2026-04-22 02:45 | -26.62619 | -70.71954 | 35135 ft | 492 kts | 195° |
| 2026-04-22 02:46 | -26.69444 | -70.72551 | 35135 ft | 492 kts | 195° |
| 2026-04-22 02:46 | -26.76273 | -70.73146 | 35155 ft | 492 kts | 195° |
| 2026-04-22 02:47 | -26.83104 | -70.73756 | 35146 ft | 492 kts | 195° |
| 2026-04-22 02:47 | -26.89930 | -70.74371 | 35141 ft | 492 kts | 195° |
| 2026-04-22 02:48 | -26.96753 | -70.74971 | 35143 ft | 492 kts | 195° |
| 2026-04-22 02:48 | -27.03529 | -70.75567 | 35145 ft | 492 kts | 195° |
| 2026-04-22 02:49 | -27.10357 | -70.76175 | 35149 ft | 492 kts | 195° |
| 2026-04-22 02:49 | -27.17186 | -70.76794 | 35154 ft | 492 kts | 195° |
| 2026-04-22 02:50 | -27.24009 | -70.77401 | 35153 ft | 492 kts | 195° |
| 2026-04-22 02:50 | -27.30720 | -70.78373 | 35173 ft | 479 kts | 203° |
| 2026-04-22 02:51 | -27.37260 | -70.79860 | 35162 ft | 479 kts | 203° |
| 2026-04-22 02:51 | -27.43798 | -70.81339 | 35140 ft | 479 kts | 203° |
| 2026-04-22 02:52 | -27.50338 | -70.82820 | 35140 ft | 479 kts | 203° |
| 2026-04-22 02:52 | -27.56876 | -70.84297 | 35138 ft | 479 kts | 203° |
| 2026-04-22 02:53 | -27.63419 | -70.85777 | 35158 ft | 479 kts | 203° |
| 2026-04-22 02:53 | -27.69954 | -70.87263 | 35146 ft | 479 kts | 203° |
| 2026-04-22 02:54 | -27.76447 | -70.88745 | 35150 ft | 479 kts | 203° |
| 2026-04-22 02:54 | -27.82982 | -70.90246 | 35140 ft | 480 kts | 203° |
| 2026-04-22 02:55 | -27.89524 | -70.91739 | 35166 ft | 480 kts | 203° |
| 2026-04-22 02:55 | -27.96074 | -70.93226 | 35150 ft | 480 kts | 203° |
| 2026-04-22 02:56 | -28.02623 | -70.94715 | 35143 ft | 479 kts | 203° |
| 2026-04-22 02:56 | -28.09165 | -70.96210 | 35136 ft | 480 kts | 203° |
| 2026-04-22 02:57 | -28.15703 | -70.97710 | 35132 ft | 480 kts | 203° |
| 2026-04-22 02:57 | -28.22205 | -70.99204 | 35149 ft | 478 kts | 204° |
| 2026-04-22 02:58 | -28.28717 | -71.00707 | 35139 ft | 478 kts | 204° |
| 2026-04-22 02:58 | -28.35232 | -71.02213 | 35129 ft | 478 kts | 204° |
| 2026-04-22 02:59 | -28.41745 | -71.03713 | 35126 ft | 478 kts | 204° |
| 2026-04-22 02:59 | -28.48263 | -71.05209 | 35153 ft | 477 kts | 204° |
| 2026-04-22 03:00 | -28.54767 | -71.06717 | 35148 ft | 477 kts | 204° |
| 2026-04-22 03:00 | -28.61270 | -71.08224 | 35137 ft | 476 kts | 204° |
| 2026-04-22 03:01 | -28.67767 | -71.09724 | 35135 ft | 477 kts | 204° |
| 2026-04-22 03:01 | -28.74264 | -71.11222 | 35124 ft | 476 kts | 204° |
| 2026-04-22 03:02 | -28.80713 | -71.12726 | 35154 ft | 476 kts | 204° |
| 2026-04-22 03:02 | -28.87201 | -71.14237 | 35147 ft | 476 kts | 204° |
| 2026-04-22 03:03 | -28.93685 | -71.15743 | 35151 ft | 476 kts | 204° |
| 2026-04-22 03:03 | -29.00172 | -71.17257 | 35146 ft | 475 kts | 204° |
| 2026-04-22 03:04 | -29.06652 | -71.18768 | 35175 ft | 475 kts | 204° |
| 2026-04-22 03:04 | -29.13117 | -71.20274 | 35154 ft | 474 kts | 204° |
| 2026-04-22 03:05 | -29.19589 | -71.21791 | 35153 ft | 474 kts | 204° |
| 2026-04-22 03:05 | -29.26043 | -71.23304 | 35145 ft | 473 kts | 204° |
| 2026-04-22 03:06 | -29.32502 | -71.24820 | 35146 ft | 474 kts | 204° |
| 2026-04-22 03:06 | -29.38953 | -71.26334 | 35166 ft | 473 kts | 204° |
| 2026-04-22 03:07 | -29.45400 | -71.27844 | 35158 ft | 473 kts | 204° |
| 2026-04-22 03:07 | -29.51796 | -71.29349 | 35156 ft | 472 kts | 204° |
| 2026-04-22 03:08 | -29.58232 | -71.30867 | 35149 ft | 471 kts | 204° |
| 2026-04-22 03:08 | -29.64650 | -71.32386 | 35169 ft | 471 kts | 204° |
| 2026-04-22 03:09 | -29.71070 | -71.33899 | 35164 ft | 470 kts | 204° |
| 2026-04-22 03:09 | -29.77480 | -71.35408 | 35159 ft | 470 kts | 204° |
| 2026-04-22 03:10 | -29.83880 | -71.36924 | 35159 ft | 469 kts | 204° |
| 2026-04-22 03:10 | -29.90275 | -71.38446 | 35150 ft | 469 kts | 204° |
| 2026-04-22 03:11 | -29.96668 | -71.39971 | 35149 ft | 469 kts | 204° |
| 2026-04-22 03:11 | -30.03060 | -71.41495 | 35140 ft | 469 kts | 204° |
| 2026-04-22 03:12 | -30.09457 | -71.43019 | 35132 ft | 469 kts | 204° |
| 2026-04-22 03:12 | -30.19044 | -71.45309 | 35172 ft | 469 kts | 204° |
| 2026-04-22 03:13 | -30.25435 | -71.46836 | 35161 ft | 468 kts | 204° |
| 2026-04-22 03:13 | -30.31844 | -71.48288 | 35160 ft | 471 kts | 202° |
| 2026-04-22 03:14 | -30.38330 | -71.49504 | 35158 ft | 473 kts | 201° |
| 2026-04-22 03:14 | -30.44830 | -71.50672 | 35158 ft | 472 kts | 201° |
| 2026-04-22 03:15 | -30.51308 | -71.51902 | 35183 ft | 471 kts | 202° |
| 2026-04-22 03:15 | -30.57728 | -71.53156 | 35175 ft | 471 kts | 202° |
| 2026-04-22 03:16 | -30.64188 | -71.54410 | 35172 ft | 470 kts | 202° |
| 2026-04-22 03:16 | -30.70650 | -71.55656 | 35177 ft | 471 kts | 201° |
| 2026-04-22 03:17 | -30.77104 | -71.56906 | 35187 ft | 471 kts | 201° |
| 2026-04-22 03:17 | -30.83569 | -71.58167 | 35179 ft | 471 kts | 201° |
| 2026-04-22 03:18 | -30.90035 | -71.59419 | 35179 ft | 471 kts | 201° |
| 2026-04-22 03:18 | -30.95405 | -71.60465 | 35175 ft | 471 kts | 201° |
| 2026-04-22 03:19 | -31.01864 | -71.61730 | 35202 ft | 471 kts | 201° |
| 2026-04-22 03:19 | -31.08325 | -71.62996 | 35187 ft | 471 kts | 201° |
| 2026-04-22 03:20 | -31.15837 | -71.64471 | 35181 ft | 471 kts | 201° |
| 2026-04-22 03:20 | -31.22300 | -71.65734 | 35181 ft | 471 kts | 201° |
| 2026-04-22 03:21 | -31.27713 | -71.66793 | 35185 ft | 471 kts | 201° |
| 2026-04-22 03:21 | -31.34171 | -71.68057 | 35212 ft | 470 kts | 201° |
| 2026-04-22 03:22 | -31.40580 | -71.69308 | 35210 ft | 470 kts | 201° |
| 2026-04-22 03:22 | -31.47022 | -71.70577 | 35203 ft | 469 kts | 201° |
| 2026-04-22 03:23 | -31.53457 | -71.71853 | 35199 ft | 469 kts | 201° |
| 2026-04-22 03:23 | -31.59887 | -71.73128 | 35224 ft | 469 kts | 201° |
| 2026-04-22 03:24 | -31.66314 | -71.74401 | 35216 ft | 468 kts | 201° |
| 2026-04-22 03:24 | -31.72730 | -71.75669 | 35209 ft | 468 kts | 201° |
| 2026-04-22 03:25 | -31.79149 | -71.76937 | 35206 ft | 468 kts | 201° |
| 2026-04-22 03:25 | -31.85569 | -71.78202 | 35232 ft | 467 kts | 200° |
| 2026-04-22 03:26 | -31.91941 | -71.79466 | 35222 ft | 467 kts | 200° |
| 2026-04-22 03:26 | -31.98341 | -71.80745 | 35221 ft | 466 kts | 201° |
| 2026-04-22 03:27 | -32.04739 | -71.82027 | 35218 ft | 466 kts | 200° |
| 2026-04-22 03:27 | -32.11137 | -71.83302 | 35241 ft | 467 kts | 200° |
| 2026-04-22 03:28 | -32.17538 | -71.84576 | 35232 ft | 466 kts | 200° |
| 2026-04-22 03:28 | -32.23921 | -71.85850 | 35228 ft | 465 kts | 200° |
| 2026-04-22 03:29 | -32.30303 | -71.87126 | 35223 ft | 465 kts | 200° |
| 2026-04-22 03:29 | -32.36672 | -71.88404 | 35251 ft | 465 kts | 200° |
| 2026-04-22 03:30 | -32.43043 | -71.89689 | 35228 ft | 464 kts | 199° |
| 2026-04-22 03:30 | -32.49398 | -71.90966 | 35237 ft | 463 kts | 199° |
| 2026-04-22 03:31 | -32.55706 | -71.92236 | 35230 ft | 462 kts | 199° |
| 2026-04-22 03:31 | -32.62044 | -71.93513 | 35222 ft | 462 kts | 199° |
| 2026-04-22 03:32 | -32.68376 | -71.94791 | 35219 ft | 461 kts | 199° |
| 2026-04-22 03:32 | -32.74707 | -71.96074 | 35216 ft | 461 kts | 199° |
| 2026-04-22 03:33 | -32.81035 | -71.97357 | 35213 ft | 461 kts | 199° |
| 2026-04-22 03:33 | -32.87366 | -71.98640 | 35214 ft | 461 kts | 199° |
| 2026-04-22 03:34 | -32.93685 | -71.99933 | 35234 ft | 460 kts | 199° |
| 2026-04-22 03:34 | -33.00000 | -72.01214 | 35225 ft | 460 kts | 199° |
| 2026-04-22 03:35 | -33.06302 | -72.02494 | 35221 ft | 459 kts | 199° |
| 2026-04-22 03:35 | -33.12554 | -72.03771 | 35218 ft | 459 kts | 199° |
| 2026-04-22 03:36 | -33.18857 | -72.05059 | 35244 ft | 459 kts | 198° |
| 2026-04-22 03:36 | -33.25147 | -72.06360 | 35234 ft | 459 kts | 198° |
| 2026-04-22 03:37 | -33.31437 | -72.07648 | 35225 ft | 459 kts | 198° |
| 2026-04-22 03:37 | -33.37727 | -72.08934 | 35227 ft | 458 kts | 198° |
| 2026-04-22 03:38 | -33.44010 | -72.10230 | 35237 ft | 458 kts | 198° |
| 2026-04-22 03:38 | -33.50289 | -72.11528 | 35231 ft | 458 kts | 198° |
| 2026-04-22 03:39 | -33.56533 | -72.12815 | 35231 ft | 458 kts | 198° |
| 2026-04-22 03:39 | -33.62810 | -72.14108 | 35228 ft | 458 kts | 198° |
| 2026-04-22 03:40 | -33.69096 | -72.15410 | 35258 ft | 458 kts | 198° |
| 2026-04-22 03:40 | -33.75372 | -72.16709 | 35245 ft | 458 kts | 198° |
| 2026-04-22 03:41 | -33.81649 | -72.18007 | 35236 ft | 457 kts | 198° |
| 2026-04-22 03:41 | -33.87915 | -72.19306 | 35233 ft | 457 kts | 198° |
| 2026-04-22 03:42 | -33.94181 | -72.20618 | 35257 ft | 457 kts | 198° |
| 2026-04-22 03:42 | -34.00444 | -72.21933 | 35245 ft | 457 kts | 198° |
| 2026-04-22 03:43 | -34.06680 | -72.23239 | 35244 ft | 457 kts | 198° |
| 2026-04-22 03:43 | -34.12949 | -72.24547 | 35240 ft | 457 kts | 198° |
| 2026-04-22 03:44 | -34.19217 | -72.25857 | 35248 ft | 457 kts | 198° |
| 2026-04-22 03:44 | -34.25478 | -72.27168 | 35234 ft | 456 kts | 199° |
| 2026-04-22 03:45 | -34.31733 | -72.28476 | 35228 ft | 456 kts | 199° |
| 2026-04-22 03:45 | -34.37981 | -72.29786 | 35229 ft | 456 kts | 199° |
| 2026-04-22 03:46 | -34.44236 | -72.31105 | 35226 ft | 456 kts | 199° |
| 2026-04-22 03:46 | -34.50487 | -72.32431 | 35254 ft | 456 kts | 199° |
| 2026-04-22 03:47 | -34.56734 | -72.33756 | 35250 ft | 456 kts | 199° |
| 2026-04-22 03:47 | -34.62940 | -72.35071 | 35246 ft | 456 kts | 199° |
| 2026-04-22 03:48 | -34.69190 | -72.36397 | 35246 ft | 456 kts | 199° |
| 2026-04-22 03:48 | -34.75431 | -72.37721 | 35269 ft | 456 kts | 199° |
| 2026-04-22 03:49 | -34.81679 | -72.39038 | 35262 ft | 455 kts | 199° |
| 2026-04-22 03:49 | -34.84796 | -72.39703 | 35046 ft | 454 kts | 199° |
| 2026-04-22 03:49 | -34.87904 | -72.40369 | 34753 ft | 454 kts | 199° |
| 2026-04-22 03:50 | -34.91029 | -72.41041 | 34061 ft | 456 kts | 199° |
| 2026-04-22 03:50 | -34.94147 | -72.41706 | 33449 ft | 454 kts | 199° |
| 2026-04-22 03:50 | -34.97255 | -72.42363 | 32925 ft | 452 kts | 199° |
| 2026-04-22 03:50 | -35.00341 | -72.43014 | 32345 ft | 450 kts | 199° |
| 2026-04-22 03:51 | -35.03415 | -72.43666 | 31789 ft | 447 kts | 199° |
| 2026-04-22 03:51 | -35.06466 | -72.44318 | 31239 ft | 444 kts | 198° |
| 2026-04-22 03:51 | -35.09505 | -72.44974 | 30699 ft | 442 kts | 198° |
| 2026-04-22 03:51 | -35.12483 | -72.45618 | 30142 ft | 440 kts | 198° |
| 2026-04-22 03:52 | -35.15480 | -72.46263 | 29588 ft | 436 kts | 198° |
| 2026-04-22 03:52 | -35.18455 | -72.46900 | 29062 ft | 432 kts | 198° |
| 2026-04-22 03:52 | -35.21401 | -72.47529 | 28543 ft | 428 kts | 198° |
| 2026-04-22 03:52 | -35.24321 | -72.48151 | 28031 ft | 424 kts | 198° |
| 2026-04-22 03:53 | -35.27217 | -72.48769 | 27528 ft | 420 kts | 198° |
| 2026-04-22 03:53 | -35.30080 | -72.49385 | 27043 ft | 416 kts | 198° |
| 2026-04-22 03:53 | -35.32916 | -72.49999 | 26559 ft | 412 kts | 198° |
| 2026-04-22 03:53 | -35.35728 | -72.50610 | 26091 ft | 409 kts | 198° |
| 2026-04-22 03:54 | -35.38520 | -72.51217 | 25638 ft | 405 kts | 197° |
| 2026-04-22 03:54 | -35.41284 | -72.51815 | 25187 ft | 402 kts | 197° |
| 2026-04-22 03:54 | -35.44023 | -72.52407 | 24739 ft | 398 kts | 197° |
| 2026-04-22 03:54 | -35.46742 | -72.52994 | 24321 ft | 395 kts | 197° |
| 2026-04-22 03:55 | -35.49445 | -72.53582 | 23845 ft | 394 kts | 197° |
| 2026-04-22 03:55 | -35.52133 | -72.54166 | 23344 ft | 391 kts | 197° |
| 2026-04-22 03:55 | -35.54798 | -72.54742 | 22897 ft | 386 kts | 197° |
| 2026-04-22 03:55 | -35.57400 | -72.55302 | 22461 ft | 383 kts | 196° |
| 2026-04-22 03:56 | -35.60015 | -72.55863 | 22014 ft | 379 kts | 196° |
| 2026-04-22 03:56 | -35.62602 | -72.56421 | 21567 ft | 376 kts | 196° |
| 2026-04-22 03:56 | -35.65166 | -72.56980 | 21119 ft | 373 kts | 196° |
| 2026-04-22 03:56 | -35.67713 | -72.57538 | 20675 ft | 371 kts | 196° |
| 2026-04-22 03:57 | -35.70244 | -72.58093 | 20214 ft | 368 kts | 195° |
| 2026-04-22 03:57 | -35.72765 | -72.58643 | 19788 ft | 367 kts | 195° |
| 2026-04-22 03:57 | -35.75270 | -72.59188 | 19341 ft | 365 kts | 195° |
| 2026-04-22 03:57 | -35.77762 | -72.59730 | 18908 ft | 363 kts | 195° |
| 2026-04-22 03:58 | -35.80239 | -72.60272 | 18461 ft | 361 kts | 195° |
| 2026-04-22 03:58 | -35.82669 | -72.60950 | 17985 ft | 354 kts | 203° |
| 2026-04-22 03:58 | -35.84943 | -72.62007 | 17582 ft | 348 kts | 205° |
| 2026-04-22 03:58 | -35.87198 | -72.63075 | 17144 ft | 345 kts | 205° |
| 2026-04-22 03:59 | -35.89426 | -72.64126 | 16725 ft | 341 kts | 205° |
| 2026-04-22 03:59 | -35.91635 | -72.65168 | 16319 ft | 338 kts | 205° |
| 2026-04-22 03:59 | -35.93825 | -72.66201 | 15911 ft | 335 kts | 205° |
| 2026-04-22 03:59 | -35.95997 | -72.67225 | 15504 ft | 333 kts | 205° |
| 2026-04-22 04:00 | -35.98151 | -72.68245 | 15116 ft | 331 kts | 205° |
| 2026-04-22 04:00 | -36.00261 | -72.69248 | 14719 ft | 329 kts | 205° |
| 2026-04-22 04:00 | -36.02393 | -72.70262 | 14314 ft | 327 kts | 205° |
| 2026-04-22 04:00 | -36.04520 | -72.71272 | 13886 ft | 326 kts | 204° |
| 2026-04-22 04:01 | -36.06631 | -72.72273 | 13473 ft | 324 kts | 204° |
| 2026-04-22 04:01 | -36.08724 | -72.73266 | 13064 ft | 321 kts | 204° |
| 2026-04-22 04:01 | -36.10801 | -72.74252 | 12670 ft | 318 kts | 204° |
| 2026-04-22 04:01 | -36.12869 | -72.75236 | 12259 ft | 317 kts | 204° |
| 2026-04-22 04:02 | -36.14918 | -72.76212 | 11843 ft | 315 kts | 204° |
| 2026-04-22 04:02 | -36.16957 | -72.77182 | 11439 ft | 314 kts | 204° |
| 2026-04-22 04:02 | -36.19005 | -72.78158 | 10799 ft | 314 kts | 204° |
| 2026-04-22 04:02 | -36.21019 | -72.79115 | 10381 ft | 305 kts | 204° |
| 2026-04-22 04:03 | -36.22952 | -72.80034 | 10101 ft | 291 kts | 204° |
| 2026-04-22 04:03 | -36.24818 | -72.80922 | 9759 ft | 285 kts | 204° |
| 2026-04-22 04:03 | -36.26653 | -72.81796 | 9636 ft | 281 kts | 204° |
| 2026-04-22 04:03 | -36.28476 | -72.82668 | 9492 ft | 281 kts | 204° |
| 2026-04-22 04:04 | -36.30296 | -72.83543 | 9195 ft | 279 kts | 204° |
| 2026-04-22 04:04 | -36.32100 | -72.84408 | 8847 ft | 277 kts | 204° |
| 2026-04-22 04:04 | -36.33890 | -72.85266 | 8501 ft | 275 kts | 203° |
| 2026-04-22 04:04 | -36.35675 | -72.86123 | 8151 ft | 274 kts | 203° |
| 2026-04-22 04:05 | -36.37476 | -72.86861 | 7804 ft | 273 kts | 196° |
| 2026-04-22 04:05 | -36.39315 | -72.87443 | 7465 ft | 271 kts | 196° |
| 2026-04-22 04:05 | -36.41111 | -72.88012 | 7125 ft | 269 kts | 196° |
| 2026-04-22 04:05 | -36.42924 | -72.88589 | 6791 ft | 268 kts | 196° |
| 2026-04-22 04:06 | -36.44722 | -72.89163 | 6440 ft | 266 kts | 196° |
| 2026-04-22 04:06 | -36.46504 | -72.89729 | 6102 ft | 264 kts | 195° |
| 2026-04-22 04:06 | -36.48270 | -72.90290 | 5764 ft | 260 kts | 195° |
| 2026-04-22 04:06 | -36.50012 | -72.90847 | 5424 ft | 254 kts | 195° |
| 2026-04-22 04:07 | -36.51641 | -72.91442 | 5120 ft | 235 kts | 204° |
| 2026-04-22 04:07 | -36.53055 | -72.92269 | 4853 ft | 216 kts | 206° |
| 2026-04-22 04:07 | -36.54386 | -72.93046 | 4591 ft | 207 kts | 205° |
| 2026-04-22 04:07 | -36.55656 | -72.93782 | 4328 ft | 196 kts | 205° |
| 2026-04-22 04:08 | -36.56859 | -72.94476 | 4064 ft | 186 kts | 205° |
| 2026-04-22 04:08 | -36.58007 | -72.95139 | 3833 ft | 177 kts | 205° |
| 2026-04-22 04:08 | -36.59094 | -72.95770 | 3618 ft | 168 kts | 205° |
| 2026-04-22 04:08 | -36.60135 | -72.96374 | 3408 ft | 162 kts | 205° |
| 2026-04-22 04:09 | -36.61140 | -72.96955 | 3207 ft | 157 kts | 205° |
| 2026-04-22 04:09 | -36.62106 | -72.97513 | 3008 ft | 153 kts | 205° |
| 2026-04-22 04:09 | -36.63068 | -72.98068 | 2820 ft | 152 kts | 206° |
| 2026-04-22 04:09 | -36.64019 | -72.98619 | 2623 ft | 150 kts | 206° |
| 2026-04-22 04:10 | -36.64963 | -72.99168 | 2434 ft | 149 kts | 206° |
| 2026-04-22 04:10 | -36.65902 | -72.99711 | 2243 ft | 148 kts | 206° |
| 2026-04-22 04:10 | -36.66830 | -73.00248 | 2056 ft | 147 kts | 206° |
| 2026-04-22 04:10 | -36.67751 | -73.00784 | 1896 ft | 144 kts | 206° |
| 2026-04-22 04:11 | -36.68645 | -73.01301 | 1704 ft | 140 kts | 206° |
| 2026-04-22 04:11 | -36.69523 | -73.01812 | 1485 ft | 139 kts | 206° |
| 2026-04-22 04:11 | -36.70394 | -73.02318 | 1305 ft | 138 kts | 205° |
| 2026-04-22 04:11 | -36.71261 | -73.02822 | 1112 ft | 137 kts | 205° |
| 2026-04-22 04:12 | -36.72125 | -73.03325 | 921 ft | 137 kts | 205° |
| 2026-04-22 04:12 | -36.73000 | -73.03833 | 726 ft | 141 kts | 205° |
| 2026-04-22 04:12 | -36.73893 | -73.04352 | 540 ft | 142 kts | 205° |
| 2026-04-22 04:12 | -36.74781 | -73.04865 | 366 ft | 143 kts | 205° |
| 2026-04-22 04:13 | -36.75678 | -73.05398 | 187 ft | 143 kts | 206° |
| 2026-04-22 04:13 | -36.76568 | -73.05918 | 64 ft | 135 kts | 205° |
| 2026-04-22 04:13 | -36.77198 | -73.06285 | 58 ft | 57 kts | 205° |
| 2026-04-22 04:13 | -36.77340 | -73.06367 | 62 ft | 10 kts | 204° |
| 2026-04-22 04:14 | -36.77394 | -73.06371 | 63 ft | 7 kts | 136° |
| 2026-04-22 04:14 | -36.77439 | -73.06334 | 59 ft | 9 kts | 162° |
| 2026-04-22 04:14 | -36.77499 | -73.06324 | 54 ft | 7 kts | 175° |
| 2026-04-22 04:14 | -36.77550 | -73.06319 | 61 ft | 7 kts | 175° |
| 2026-04-22 04:15 | -36.77595 | -73.06315 | 57 ft | 6 kts | 176° |
| 2026-04-22 04:15 | -36.77624 | -73.06295 | 59 ft | 3 kts | 91° |
| 2026-04-22 04:15 | -36.77606 | -73.06275 | 56 ft | 4 kts | 26° |
| 2026-04-22 04:15 | -36.77572 | -73.06255 | 52 ft | 7 kts | 25° |
| 2026-04-22 04:16 | -36.77523 | -73.06222 | 57 ft | 9 kts | 43° |
| 2026-04-22 04:16 | -36.77523 | -73.06110 | 55 ft | 4 kts | 110° |
| 2026-04-22 04:16 | -36.77529 | -73.06085 | 58 ft | 5 kts | 107° |
| 2026-04-22 04:17 | -36.77564 | -73.06044 | 57 ft | 5 kts | 161° |
| 2026-04-22 04:17 | -36.77587 | -73.06037 | 56 ft | 2 kts | 168° |
| 2026-04-22 04:17 | -36.77593 | -73.06035 | 54 ft | 0 kts | 169° |
| 2026-04-22 04:17 | -36.77600 | -73.06034 | 57 ft | 1 kts | 169° |
| 2026-04-22 04:18 | -36.77603 | -73.06033 | 57 ft | 0 kts | 169° |